Terminal Aerodrome Forecast
Issued by NWS

Home | Current Version | Previous Version | Text Only | Print | Product List | Glossary On
Versions: 1 2 3 4 5 6 7 8 9 10 11 12 13
000
FTUS41 KCAR 021751
TAFPQI
TAF
KPQI 021751Z 0218/0318 29011G21KT 4SM -SN SCT025 OVC040
     FM022100 30015G25KT 2SM -SN OVC025
     FM030100 30020G30KT 4SM -SN BLSN SCT020 OVC030
     FM030300 31015G25KT P6SM SCT100
     FM031100 32012KT P6SM SKC
      AMD LTD TO CLD VIS AND WIND=

USA.gov is the U.S. government's official web portal to all federal, state and local government web resources and services.